createdAt,value
2023-04-16T00:01:34.008Z,-85
2023-04-16T00:04:00.896Z,-84
2023-04-16T00:06:28.773Z,-83
2023-04-16T00:08:55.530Z,-84
2023-04-16T00:11:22.380Z,-83
2023-04-16T00:13:49.232Z,-84
2023-04-16T00:16:16.266Z,-85
2023-04-16T00:18:43.526Z,-85
2023-04-16T00:21:10.173Z,-85
2023-04-16T00:23:36.871Z,-84
2023-04-16T00:26:03.793Z,-85
2023-04-16T00:28:30.499Z,-84
2023-04-16T00:30:57.156Z,-85
2023-04-16T00:33:24.016Z,-85
2023-04-16T00:35:51.353Z,-84
2023-04-16T00:38:18.175Z,-84
2023-04-16T00:40:45.280Z,-84
2023-04-16T00:43:11.856Z,-85
2023-04-16T00:45:38.888Z,-86
2023-04-16T00:48:06.143Z,-84
2023-04-16T00:50:33.749Z,-85
2023-04-16T00:53:02.898Z,-84
2023-04-16T00:55:30.045Z,-84
2023-04-16T00:57:56.621Z,-85
2023-04-16T01:00:23.339Z,-84
2023-04-16T01:02:50.170Z,-84
2023-04-16T01:05:16.934Z,-85
2023-04-16T01:07:44.580Z,-86
2023-04-16T01:10:11.418Z,-85
2023-04-16T01:12:38.050Z,-85
2023-04-16T01:15:05.130Z,-84
2023-04-16T01:17:31.715Z,-83
2023-04-16T01:20:00.386Z,-83
2023-04-16T01:22:28.708Z,-83
2023-04-16T01:24:55.326Z,-86
2023-04-16T01:27:21.956Z,-84
2023-04-16T01:29:48.828Z,-84
2023-04-16T01:32:15.650Z,-83
2023-04-16T01:34:42.230Z,-85
2023-04-16T01:37:08.871Z,-85
2023-04-16T01:39:35.733Z,-84
2023-04-16T01:42:02.560Z,-84
2023-04-16T01:44:29.299Z,-83
2023-04-16T01:46:58.509Z,-84
2023-04-16T01:49:25.480Z,-84
2023-04-16T01:51:53.082Z,-83
2023-04-16T01:54:21.947Z,-83
2023-04-16T01:56:48.601Z,-84
2023-04-16T01:59:15.219Z,-85
2023-04-16T02:01:42.993Z,-83
2023-04-16T02:04:10.752Z,-83
2023-04-16T02:06:37.466Z,-84
2023-04-16T02:09:04.270Z,-83
2023-04-16T02:11:31.083Z,-87
2023-04-16T02:13:58.211Z,-86
2023-04-16T02:16:26.484Z,-86
2023-04-16T02:18:53.166Z,-87
2023-04-16T02:21:20.449Z,-84
2023-04-16T02:23:51.877Z,-85
2023-04-16T02:26:18.707Z,-85
2023-04-16T02:28:45.390Z,-83
2023-04-16T02:31:12.024Z,-83
2023-04-16T02:33:38.664Z,-84
2023-04-16T02:36:05.650Z,-85
2023-04-16T02:38:32.335Z,-85
2023-04-16T02:40:59.590Z,-86
2023-04-16T02:43:26.560Z,-84
2023-04-16T02:45:53.535Z,-85
2023-04-16T02:48:20.247Z,-86
2023-04-16T02:50:46.939Z,-85
2023-04-16T02:53:13.655Z,-86
2023-04-16T02:55:40.269Z,-84
2023-04-16T02:58:07.199Z,-84
2023-04-16T03:00:33.819Z,-85
2023-04-16T03:03:00.468Z,-85
2023-04-16T03:05:27.082Z,-84
2023-04-16T03:07:56.867Z,-84
2023-04-16T03:10:24.279Z,-84
2023-04-16T03:12:51.078Z,-84
2023-04-16T03:15:17.856Z,-85
2023-04-16T03:17:44.588Z,-85
2023-04-16T03:20:11.602Z,-86
2023-04-16T03:22:39.153Z,-86
2023-04-16T03:25:06.735Z,-85
2023-04-16T03:27:36.924Z,-85
2023-04-16T03:30:04.882Z,-83
2023-04-16T03:32:31.571Z,-84
2023-04-16T03:34:58.237Z,-84
2023-04-16T03:37:24.945Z,-85
2023-04-16T03:39:51.724Z,-85
2023-04-16T03:42:18.356Z,-85
2023-04-16T03:44:47.936Z,-84
2023-04-16T03:47:17.405Z,-86
2023-04-16T03:49:44.057Z,-85
2023-04-16T03:52:11.717Z,-84
2023-04-16T03:54:38.336Z,-86
2023-04-16T03:57:05.117Z,-83
2023-04-16T03:59:31.732Z,-85
2023-04-16T04:01:58.802Z,-86
2023-04-16T04:04:25.627Z,-85
2023-04-16T04:06:52.295Z,-83
2023-04-16T04:09:18.992Z,-83
2023-04-16T04:11:45.700Z,-83
2023-04-16T04:14:12.326Z,-83
2023-04-16T04:16:39.061Z,-84
2023-04-16T04:19:05.815Z,-84
2023-04-16T04:21:34.981Z,-84
2023-04-16T04:24:04.462Z,-84
2023-04-16T04:26:31.162Z,-84
2023-04-16T04:28:57.784Z,-84
2023-04-16T04:31:24.523Z,-84
2023-04-16T04:33:51.210Z,-85
2023-04-16T04:36:17.807Z,-85
2023-04-16T04:38:44.390Z,-84
2023-04-16T04:41:11.116Z,-84
2023-04-16T04:43:37.745Z,-83
2023-04-16T04:46:04.731Z,-83
2023-04-16T04:48:31.445Z,-83
2023-04-16T04:50:58.162Z,-84
2023-04-16T04:53:24.741Z,-84
2023-04-16T04:55:54.238Z,-82
2023-04-16T04:58:24.036Z,-83
2023-04-16T05:00:50.665Z,-84
2023-04-16T05:03:20.942Z,-83
2023-04-16T05:05:48.152Z,-84
2023-04-16T05:08:14.768Z,-85
2023-04-16T05:10:41.513Z,-84
2023-04-16T05:13:08.113Z,-83
2023-04-16T05:15:34.735Z,-84
2023-04-16T05:18:01.782Z,-83
2023-04-16T05:20:28.372Z,-83
2023-04-16T05:22:55.568Z,-83
2023-04-16T05:25:22.587Z,-82
2023-04-16T05:27:49.348Z,-82
2023-04-16T05:30:16.026Z,-83
2023-04-16T05:32:42.676Z,-82
2023-04-16T05:35:10.138Z,-82
2023-04-16T05:37:36.871Z,-85
2023-04-16T05:40:04.218Z,-84
2023-04-16T05:42:31.204Z,-83
2023-04-16T05:44:57.891Z,-84
2023-04-16T05:47:25.818Z,-85
2023-04-16T05:49:52.418Z,-84
2023-04-16T05:52:19.099Z,-83
2023-04-16T05:54:45.751Z,-84
2023-04-16T05:57:13.955Z,-86
2023-04-16T05:59:40.584Z,-86
2023-04-16T06:02:07.242Z,-85
2023-04-16T06:04:35.834Z,-83
2023-04-16T06:07:02.508Z,-85
2023-04-16T06:09:30.168Z,-85
2023-04-16T06:11:56.869Z,-85
2023-04-16T06:14:23.829Z,-84
2023-04-16T06:16:50.444Z,-85
2023-04-16T06:19:17.817Z,-85
2023-04-16T06:21:44.844Z,-83
2023-04-16T06:24:11.424Z,-84
2023-04-16T06:26:40.622Z,-84
2023-04-16T06:29:07.485Z,-84
2023-04-16T06:31:37.503Z,-84
2023-04-16T06:34:04.195Z,-85
2023-04-16T06:36:31.374Z,-84
2023-04-16T06:38:58.133Z,-83
2023-04-16T06:41:26.829Z,-83
2023-04-16T06:43:53.414Z,-83
2023-04-16T06:46:22.379Z,-82
2023-04-16T06:48:49.080Z,-82
2023-04-16T06:51:15.779Z,-83
2023-04-16T06:53:42.746Z,-85
2023-04-16T06:56:09.502Z,-85
2023-04-16T06:58:36.495Z,-85
2023-04-16T07:01:03.185Z,-85
2023-04-16T07:03:30.044Z,-82
2023-04-16T07:05:56.957Z,-84
2023-04-16T07:08:23.873Z,-84
2023-04-16T07:10:54.018Z,-85
2023-04-16T07:13:21.004Z,-82
2023-04-16T07:15:48.165Z,-83
2023-04-16T07:18:14.910Z,-83
2023-04-16T07:20:41.650Z,-84
2023-04-16T07:23:08.323Z,-81
2023-04-16T07:25:35.138Z,-83
2023-04-16T07:28:01.992Z,-82
2023-04-16T07:30:34.175Z,-83
2023-04-16T07:33:04.964Z,-82
2023-04-16T07:35:32.089Z,-83
2023-04-16T07:37:58.839Z,-82
2023-04-16T07:40:25.606Z,-82
2023-04-16T07:42:52.364Z,-82
2023-04-16T07:45:19.539Z,-82
2023-04-16T07:47:46.542Z,-82
2023-04-16T07:50:13.464Z,-81
2023-04-16T07:52:41.594Z,-81
2023-04-16T07:55:09.197Z,-82
2023-04-16T07:57:36.071Z,-83
2023-04-16T08:00:05.103Z,-82
2023-04-16T08:02:32.642Z,-82
2023-04-16T08:04:59.742Z,-82
2023-04-16T08:07:26.407Z,-84
2023-04-16T08:09:53.605Z,-82
2023-04-16T08:12:21.120Z,-83
2023-04-16T08:14:50.357Z,-82
2023-04-16T08:17:17.048Z,-83
2023-04-16T08:19:45.223Z,-81
2023-04-16T08:22:14.892Z,-82
2023-04-16T08:24:41.548Z,-82
2023-04-16T08:27:18.452Z,-82
2023-04-16T08:29:46.111Z,-82
2023-04-16T08:32:12.946Z,-83
2023-04-16T08:34:39.651Z,-83
2023-04-16T08:37:06.574Z,-82
2023-04-16T08:39:33.188Z,-82
2023-04-16T08:42:03.631Z,-82
2023-04-16T08:44:36.036Z,-82
2023-04-16T08:47:03.416Z,-82
2023-04-16T08:49:33.423Z,-82
2023-04-16T08:52:00.710Z,-82
2023-04-16T08:54:36.388Z,-82
2023-04-16T08:57:07.129Z,-82
2023-04-16T08:59:34.977Z,-83
2023-04-16T09:02:02.568Z,-82
2023-04-16T09:04:29.641Z,-81
2023-04-16T09:06:57.564Z,-82
2023-04-16T09:09:26.626Z,-82
2023-04-16T09:11:54.025Z,-82
2023-04-16T09:14:20.830Z,-82
2023-04-16T09:16:48.173Z,-82
2023-04-16T09:19:15.853Z,-82
2023-04-16T09:21:46.101Z,-82
2023-04-16T09:24:13.293Z,-82
2023-04-16T09:26:43.556Z,-82
2023-04-16T09:29:10.533Z,-83
2023-04-16T09:31:37.939Z,-83
2023-04-16T09:34:07.026Z,-81
2023-04-16T09:36:35.031Z,-83
2023-04-16T09:39:02.782Z,-84
2023-04-16T09:41:36.233Z,-85
2023-04-16T09:44:04.799Z,-85
2023-04-16T09:46:35.152Z,-84
2023-04-16T09:49:16.102Z,-84
2023-04-16T09:51:46.725Z,-83
2023-04-16T09:54:13.754Z,-84
2023-04-16T09:56:44.641Z,-84
2023-04-16T09:59:24.568Z,-83
2023-04-16T10:01:53.508Z,-83
2023-04-16T10:04:52.888Z,-83
2023-04-16T10:07:20.390Z,-83
2023-04-16T10:09:50.776Z,-83
2023-04-16T10:12:17.372Z,-82
2023-04-16T10:14:44.143Z,-82
2023-04-16T10:17:10.931Z,-83
2023-04-16T10:19:38.049Z,-81
2023-04-16T10:22:05.571Z,-81
2023-04-16T10:24:34.121Z,-82
2023-04-16T10:27:02.922Z,-81
2023-04-16T10:29:31.604Z,-84
2023-04-16T10:31:58.977Z,-82
2023-04-16T10:34:29.192Z,-84
2023-04-16T10:36:56.237Z,-83
2023-04-16T10:39:24.539Z,-82
2023-04-16T10:42:06.377Z,-84
2023-04-16T10:44:33.585Z,-83
2023-04-16T10:47:00.988Z,-81
2023-04-16T10:49:27.650Z,-82
2023-04-16T10:51:59.081Z,-83
2023-04-16T10:54:30.770Z,-84
2023-04-16T10:57:01.269Z,-81
2023-04-16T10:59:37.488Z,-83
2023-04-16T11:02:10.233Z,-83
2023-04-16T11:04:38.775Z,-83
2023-04-16T11:07:15.173Z,-82
2023-04-16T11:10:02.619Z,-84
2023-04-16T11:12:29.318Z,-83
2023-04-16T11:15:09.673Z,-83
2023-04-16T11:17:47.410Z,-83
2023-04-16T11:20:22.616Z,-83
2023-04-16T11:22:54.124Z,-81
2023-04-16T11:25:30.004Z,-83
2023-04-16T11:27:59.331Z,-82
2023-04-16T11:30:36.525Z,-83
2023-04-16T11:33:04.192Z,-82
2023-04-16T11:35:31.268Z,-84
2023-04-16T11:37:58.819Z,-82
2023-04-16T11:40:26.247Z,-86
2023-04-16T11:42:52.893Z,-85
2023-04-16T11:45:19.885Z,-83
2023-04-16T11:47:56.941Z,-82
2023-04-16T11:50:29.158Z,-85
2023-04-16T11:53:03.333Z,-85
2023-04-16T11:55:30.001Z,-83
2023-04-16T11:57:56.741Z,-82
2023-04-16T12:00:24.767Z,-83
2023-04-16T12:02:57.320Z,-83
2023-04-16T12:05:35.230Z,-82
2023-04-16T12:08:07.281Z,-82
2023-04-16T12:10:36.174Z,-84
2023-04-16T12:13:16.527Z,-82
2023-04-16T12:15:47.203Z,-81
2023-04-16T12:18:14.468Z,-84
2023-04-16T12:20:42.102Z,-82
2023-04-16T12:23:09.693Z,-81
2023-04-16T12:25:36.461Z,-84
2023-04-16T12:28:03.285Z,-80
2023-04-16T12:30:32.364Z,-80
2023-04-16T12:33:17.895Z,-81
2023-04-16T12:35:46.192Z,-83
2023-04-16T12:38:15.287Z,-81
2023-04-16T12:40:42.053Z,-82
2023-04-16T12:43:10.157Z,-84
2023-04-16T12:45:37.306Z,-82
2023-04-16T12:48:04.134Z,-81
2023-04-16T12:50:30.795Z,-82
2023-04-16T12:52:58.051Z,-82
2023-04-16T12:55:25.700Z,-83
2023-04-16T12:57:55.813Z,-83
2023-04-16T13:00:22.862Z,-82
2023-04-16T13:02:49.781Z,-82
2023-04-16T13:05:19.327Z,-82
2023-04-16T13:07:46.343Z,-85
2023-04-16T13:10:14.042Z,-83
2023-04-16T13:12:40.798Z,-83
2023-04-16T13:35:26.736Z,-84
2023-04-16T13:37:53.507Z,-84
2023-04-16T13:40:22.333Z,-83
2023-04-16T13:42:48.923Z,-83
2023-04-16T13:45:15.566Z,-83
2023-04-16T13:47:43.637Z,-83
2023-04-16T13:50:11.047Z,-84
2023-04-16T13:52:37.739Z,-83
2023-04-16T13:55:04.981Z,-84
2023-04-16T13:57:32.234Z,-84
2023-04-16T13:59:58.865Z,-84
2023-04-16T14:02:27.129Z,-83
2023-04-16T14:04:54.279Z,-84
2023-04-16T14:07:22.720Z,-83
2023-04-16T14:09:49.313Z,-83
2023-04-16T14:12:16.545Z,-84
2023-04-16T14:14:43.442Z,-84
2023-04-16T14:17:15.336Z,-84
2023-04-16T14:19:42.208Z,-83
2023-04-16T14:22:09.566Z,-84
2023-04-16T14:24:36.789Z,-85
2023-04-16T14:27:03.453Z,-84
2023-04-16T14:29:31.095Z,-86
2023-04-16T14:31:57.756Z,-85
2023-04-16T14:34:24.418Z,-82
2023-04-16T14:36:52.080Z,-83
2023-04-16T14:39:18.752Z,-83
2023-04-16T14:41:45.418Z,-82
2023-04-16T14:44:12.041Z,-83
2023-04-16T14:46:41.152Z,-82
2023-04-16T14:49:10.070Z,-85
2023-04-16T14:51:40.971Z,-86
2023-04-16T14:54:07.720Z,-85
2023-04-16T14:56:34.278Z,-87
2023-04-16T14:59:00.976Z,-82
2023-04-16T15:01:27.767Z,-84
2023-04-16T15:03:57.502Z,-83
2023-04-16T15:06:25.124Z,-83
2023-04-16T15:08:52.113Z,-83
2023-04-16T15:11:18.778Z,-86
2023-04-16T15:13:45.437Z,-85
2023-04-16T15:16:12.120Z,-83
2023-04-16T15:18:39.378Z,-82
2023-04-16T15:21:06.391Z,-83
2023-04-16T15:23:33.365Z,-82
2023-04-16T15:26:00.290Z,-83
2023-04-16T15:28:27.255Z,-81
2023-04-16T15:30:53.990Z,-83
2023-04-16T15:35:53.688Z,-83
2023-04-16T15:38:21.546Z,-84
2023-04-16T15:40:48.376Z,-83
2023-04-16T15:43:15.839Z,-84
2023-04-16T15:45:42.537Z,-81
2023-04-16T15:48:09.187Z,-85
2023-04-16T15:50:35.962Z,-82
2023-04-16T15:53:03.423Z,-82
2023-04-16T15:55:30.156Z,-83
2023-04-16T15:57:57.261Z,-82
2023-04-16T16:00:24.097Z,-80
2023-04-16T16:02:51.011Z,-81
2023-04-16T16:05:17.722Z,-88
2023-04-16T16:07:44.631Z,-84
2023-04-16T16:10:13.126Z,-81
2023-04-16T16:12:40.886Z,-82
2023-04-16T16:15:08.335Z,-82
2023-04-16T16:17:35.429Z,-82
2023-04-16T16:20:02.495Z,-84
2023-04-16T16:22:29.965Z,-83
2023-04-16T16:24:57.816Z,-83
2023-04-16T16:27:24.921Z,-82
2023-04-16T16:29:51.851Z,-84
2023-04-16T16:32:18.448Z,-84
2023-04-16T16:34:45.099Z,-85
2023-04-16T16:37:11.722Z,-82
2023-04-16T16:39:38.972Z,-81
2023-04-16T16:42:06.148Z,-83
2023-04-16T16:44:35.197Z,-83
2023-04-16T16:47:01.831Z,-84
2023-04-16T16:49:28.483Z,-82
2023-04-16T16:51:55.099Z,-86
2023-04-16T16:54:21.676Z,-83
2023-04-16T16:56:48.274Z,-83
2023-04-16T16:59:14.911Z,-85
2023-04-16T17:01:41.850Z,-80
2023-04-16T17:04:08.492Z,-82
2023-04-16T17:06:35.275Z,-80
2023-04-16T17:09:02.095Z,-80
2023-04-16T17:11:29.421Z,-80
2023-04-16T17:13:56.105Z,-79
2023-04-16T17:16:23.954Z,-81
2023-04-16T17:18:50.890Z,-79
2023-04-16T17:21:19.756Z,-80
2023-04-16T17:23:46.358Z,-80
2023-04-16T17:26:15.487Z,-81
2023-04-16T17:28:42.143Z,-81
2023-04-16T17:31:08.816Z,-79
2023-04-16T17:33:35.652Z,-80
2023-04-16T17:36:02.293Z,-80
2023-04-16T17:38:28.876Z,-80
2023-04-16T17:40:57.160Z,-79
2023-04-16T17:43:24.330Z,-82
2023-04-16T17:45:50.978Z,-81
2023-04-16T17:48:17.608Z,-79
2023-04-16T17:50:44.243Z,-80
2023-04-16T17:53:11.099Z,-81
2023-04-16T17:55:38.051Z,-79
2023-04-16T17:58:04.871Z,-80
2023-04-16T18:00:31.490Z,-81
2023-04-16T18:02:59.834Z,-80
2023-04-16T18:05:26.650Z,-81
2023-04-16T18:07:53.648Z,-81
2023-04-16T18:10:20.611Z,-80
2023-04-16T18:12:47.213Z,-80
2023-04-16T18:15:13.779Z,-81
2023-04-16T18:17:40.570Z,-81
2023-04-16T18:20:09.126Z,-80
2023-04-16T18:22:35.664Z,-80
2023-04-16T18:25:02.335Z,-81
2023-04-16T18:27:28.964Z,-80
2023-04-16T18:29:55.665Z,-82
2023-04-16T18:32:22.327Z,-80
2023-04-16T18:34:48.969Z,-81
2023-04-16T18:37:15.534Z,-80
2023-04-16T18:39:42.142Z,-80
2023-04-16T18:42:08.739Z,-82
2023-04-16T18:44:35.560Z,-80
2023-04-16T18:47:02.300Z,-80
2023-04-16T18:49:29.059Z,-81
2023-04-16T18:51:56.210Z,-80
2023-04-16T18:54:23.090Z,-80
2023-04-16T18:56:49.745Z,-79
2023-04-16T18:59:16.324Z,-80
2023-04-16T19:01:43.318Z,-80
2023-04-16T19:04:10.031Z,-80
2023-04-16T19:06:36.690Z,-80
2023-04-16T19:09:03.403Z,-81
2023-04-16T19:11:29.971Z,-79
2023-04-16T19:13:57.696Z,-81
2023-04-16T19:16:24.336Z,-81
2023-04-16T19:18:50.963Z,-81
2023-04-16T19:21:17.565Z,-80
2023-04-16T19:23:44.211Z,-82
2023-04-16T19:26:11.041Z,-80
2023-04-16T19:28:38.897Z,-82
2023-04-16T19:31:06.555Z,-81
2023-04-16T19:33:33.386Z,-80
2023-04-16T19:36:00.520Z,-80
2023-04-16T19:38:27.372Z,-80
2023-04-16T19:40:54.266Z,-80
2023-04-16T19:43:21.384Z,-80
2023-04-16T19:45:53.592Z,-80
2023-04-16T19:48:20.871Z,-80
2023-04-16T19:50:47.817Z,-80
2023-04-16T19:53:14.721Z,-80
2023-04-16T19:55:41.893Z,-80
2023-04-16T19:58:09.242Z,-80
2023-04-16T20:00:41.006Z,-79
2023-04-16T20:03:07.752Z,-80
2023-04-16T20:05:34.524Z,-80
2023-04-16T20:08:01.207Z,-80
2023-04-16T20:10:27.990Z,-79
2023-04-16T20:12:54.593Z,-79
2023-04-16T20:15:21.188Z,-79
2023-04-16T20:17:47.827Z,-79
2023-04-16T20:20:23.814Z,-81
2023-04-16T20:22:52.930Z,-79
2023-04-16T20:25:19.941Z,-81
2023-04-16T20:27:46.639Z,-80
2023-04-16T20:30:14.167Z,-81
2023-04-16T20:32:40.865Z,-80
2023-04-16T20:35:11.049Z,-82
2023-04-16T20:37:43.143Z,-80
2023-04-16T20:40:11.038Z,-83
2023-04-16T20:42:37.738Z,-82
2023-04-16T20:45:05.155Z,-83
2023-04-16T20:47:31.864Z,-80
2023-04-16T20:50:01.966Z,-80
2023-04-16T20:52:37.481Z,-81
2023-04-16T20:55:04.333Z,-81
2023-04-16T20:57:32.225Z,-81
2023-04-16T20:59:58.889Z,-82
2023-04-16T21:02:25.847Z,-80
2023-04-16T21:04:52.713Z,-81
2023-04-16T21:07:19.414Z,-81
2023-04-16T21:09:46.086Z,-81
2023-04-16T21:12:12.655Z,-82
2023-04-16T21:14:39.440Z,-83
2023-04-16T21:17:06.020Z,-81
2023-04-16T21:19:32.652Z,-81
2023-04-16T21:21:59.303Z,-81
2023-04-16T21:25:07.625Z,-82
2023-04-16T21:28:08.436Z,-82
2023-04-16T21:30:44.245Z,-82
2023-04-16T21:33:12.956Z,-82
2023-04-16T21:35:39.552Z,-80
2023-04-16T21:38:06.201Z,-81
2023-04-16T21:40:32.860Z,-81
2023-04-16T21:42:59.445Z,-81
2023-04-16T21:45:26.071Z,-74
2023-04-16T21:47:52.714Z,-74
2023-04-16T21:50:19.517Z,-74
2023-04-16T21:52:46.896Z,-74
2023-04-16T21:55:14.803Z,-80
2023-04-16T21:57:41.444Z,-79
2023-04-16T22:00:14.927Z,-82
2023-04-16T22:02:43.128Z,-81
2023-04-16T22:05:11.448Z,-82
2023-04-16T22:07:38.649Z,-81
2023-04-16T22:10:06.949Z,-83
2023-04-16T22:12:33.649Z,-82
2023-04-16T22:15:03.096Z,-83
2023-04-16T22:17:30.433Z,-85
2023-04-16T22:20:00.778Z,-83
2023-04-16T22:22:27.442Z,-82
2023-04-16T22:24:54.124Z,-81
2023-04-16T22:27:20.810Z,-80
2023-04-16T22:29:47.599Z,-80
2023-04-16T22:32:14.324Z,-81
2023-04-16T22:34:40.999Z,-81
2023-04-16T22:37:08.311Z,-82
2023-04-16T22:39:35.622Z,-83
2023-04-16T22:42:02.724Z,-82
2023-04-16T22:44:29.405Z,-81
2023-04-16T22:46:56.188Z,-81
2023-04-16T22:49:22.964Z,-79
2023-04-16T22:51:49.805Z,-80
2023-04-16T22:54:18.807Z,-80
2023-04-16T22:56:47.021Z,-83
2023-04-16T22:59:13.849Z,-83
2023-04-16T23:01:42.304Z,-81
2023-04-16T23:04:09.073Z,-81
2023-04-16T23:06:35.742Z,-81
2023-04-16T23:09:02.744Z,-80
2023-04-16T23:11:29.657Z,-80
2023-04-16T23:13:56.347Z,-81
2023-04-16T23:16:23.027Z,-81
2023-04-16T23:18:50.580Z,-82
2023-04-16T23:21:17.191Z,-81
2023-04-16T23:23:43.899Z,-80
2023-04-16T23:26:10.776Z,-81
2023-04-16T23:28:37.828Z,-81
2023-04-16T23:31:07.098Z,-80
2023-04-16T23:33:34.137Z,-81
2023-04-16T23:36:01.031Z,-83
2023-04-16T23:38:27.703Z,-80
2023-04-16T23:40:54.331Z,-80
2023-04-16T23:43:21.521Z,-81
2023-04-16T23:45:48.320Z,-80
2023-04-16T23:48:14.991Z,-81
2023-04-16T23:50:41.883Z,-81
2023-04-16T23:53:08.531Z,-80
2023-04-16T23:55:35.675Z,-83
2023-04-16T23:58:02.315Z,-82
